Queen Isabella — A8IE2 — position and weather

sailwx.info

Track history (hours):
 
Tides and Currents Weather Stations Pressure Air Temp Water Temp Dewpoint Dewpoint Depression Visibility Wind Speed Wind Dir Waves Ship Positions

Queen Isabella

Last reported at 2014-Nov-24 16:23 UTC. Time now 2014-Nov-24 21:31 UTC.
Position N 35°58' W 005°37'.

Length 131 m; draft 5.6 m.

Type: Ship. MMSI: 636090959.

Date/timePositionNaut miles runAvg speedWind from/ knotsBaromVisibWave heightAir tempDewpointWater temp
2014-Nov-24 16:23N 35°58' W 005°37'910.9
2014-Nov-24 15:33N 36°01' W 005°26'1110.5
2014-Nov-24 14:32N 36°02' W 005°13'23012.8
2014-Nov-23 20:32N 37°26' W 000°45'1414.6
2014-Nov-23 19:33N 37°35' W 000°32'1414.3
2014-Nov-23 18:33N 37°48' W 000°23'1414.6
2014-Nov-23 17:33N 37°60' W 000°12'8712.1
2014-Nov-23 10:22N 39°26' W 000°05'1112.7
2014-Nov-23 09:33N 39°36' W 000°11'2 0.1
2014-Nov-22 06:33N 39°38' W 000°12'5 0.2
2014-Nov-21 07:31N 39°36' W 000°07'7213.2
2014-Nov-21 02:04N 39°26' E 001°25'713.1
2014-Nov-21 01:33N 39°24' E 001°34'1313.4
2014-Nov-21 00:33N 39°18' E 001°49'1313.0
2014-Nov-20 23:33N 39°13' E 002°05'1313.0
2014-Nov-20 22:33N 39°08' E 002°20'1313.2
2014-Nov-20 21:33N 39°03' E 002°36'1313.3
2014-Nov-20 20:33N 38°57' E 002°51'1313.2
2014-Nov-20 19:33N 38°52' E 003°07'1312.9
2014-Nov-20 18:33N 38°47' E 003°22'1413.1
2014-Nov-20 17:30N 38°41' E 003°38'1414.3
2014-Nov-20 16:32N 38°35' E 003°54'1512.3
2014-Nov-20 15:17N 38°29' E 004°12'1013.1
2014-Nov-20 14:30N 38°25' E 004°24'1313.3
2014-Nov-20 13:30N 38°21' E 004°40'1313.5
2014-Nov-20 12:33N 38°15' E 004°55'1413.8
2014-Nov-20 11:33N 38°09' E 005°11'8313.2
2014-Nov-20 05:17N 37°35' E 006°46'  
Track history (hours):
 
Tides and Currents Weather Stations Pressure Air Temp Water Temp Dewpoint Dewpoint Depression Visibility Wind Speed Wind Dir Waves Ship Positions

Queen Isabella

Last reported at 2014-Nov-24 16:23 UTC. Time now 2014-Nov-24 21:31 UTC.
Position N 35°58' W 005°37'.

Length 131 m; draft 5.6 m.

Type: Ship. MMSI: 636090959.

Date/timePositionNaut miles runAvg speedWind from/ knotsBaromVisibWave heightAir tempDewpointWater temp
2014-Nov-24 16:23N 35°58' W 005°37'910.9
2014-Nov-24 15:33N 36°01' W 005°26'1110.5
2014-Nov-24 14:32N 36°02' W 005°13'23012.8
2014-Nov-23 20:32N 37°26' W 000°45'1414.6
2014-Nov-23 19:33N 37°35' W 000°32'1414.3
2014-Nov-23 18:33N 37°48' W 000°23'1414.6
2014-Nov-23 17:33N 37°60' W 000°12'8712.1
2014-Nov-23 10:22N 39°26' W 000°05'1112.7
2014-Nov-23 09:33N 39°36' W 000°11'2 0.1
2014-Nov-22 06:33N 39°38' W 000°12'5 0.2
2014-Nov-21 07:31N 39°36' W 000°07'7213.2
2014-Nov-21 02:04N 39°26' E 001°25'713.1
2014-Nov-21 01:33N 39°24' E 001°34'1313.4
2014-Nov-21 00:33N 39°18' E 001°49'1313.0
2014-Nov-20 23:33N 39°13' E 002°05'1313.0
2014-Nov-20 22:33N 39°08' E 002°20'1313.2
2014-Nov-20 21:33N 39°03' E 002°36'1313.3
2014-Nov-20 20:33N 38°57' E 002°51'1313.2
2014-Nov-20 19:33N 38°52' E 003°07'1312.9
2014-Nov-20 18:33N 38°47' E 003°22'1413.1
2014-Nov-20 17:30N 38°41' E 003°38'1414.3
2014-Nov-20 16:32N 38°35' E 003°54'1512.3
2014-Nov-20 15:17N 38°29' E 004°12'1013.1
2014-Nov-20 14:30N 38°25' E 004°24'1313.3
2014-Nov-20 13:30N 38°21' E 004°40'1313.5
2014-Nov-20 12:33N 38°15' E 004°55'1413.8
2014-Nov-20 11:33N 38°09' E 005°11'8313.2
2014-Nov-20 05:17N 37°35' E 006°46'  

Dump ship's entire track history